Terminal Aerodrome Forecast
Issued by NWS Memphis, TN

Home | Current Version | Previous Version | Text Only | Print | Product List | Glossary On
Versions: 1 2 3 4 5 6 7 8 9 10 11 12 13 14 15 16 17
000
FTUS44 KMEG 190520
TAFJBR
TAF
KJBR 190520Z 1906/2006 03006KT P6SM OVC040
     FM190900 05004KT 4SM BR OVC007
     FM191800 05006KT P6SM OVC015
     FM192100 06005KT P6SM OVC050=

USA.gov is the U.S. government's official web portal to all federal, state and local government web resources and services.